Lafayette Regional Airport
KLFT : now visible

Aeroporto :











RITROVATECI SU...

 
LOGIN :

Iscrizione | Disclaimer

   EN    FR    IT 

 









Sommario :    VFR   VFR Marginale   IFR   IFR Intensivo   IFR Molto Intensivo
Visibilità : 
Base nubi : 
>= 8 km
>= 3000ft
5 / 8 km
1000 / 3000 ft
1500m / 5 km
500 / 1000 ft
800 / 1500m
200 / 500 ft
< 800m
< 200 ft
Simboli :   Temporali  Nebbia  Neve Forte  Precipitazioni Forti  Vento > 20 kt







- Altitudine del aeroporto : 42 ft
- Codice IATA : LFT


KLFT - Lafayette Regional

ULTIMO METAR :
  • 201527Z 00000KT 10SM BKN007 BKN038 28/26 A3005 RMK AO2 T02830256

METARs OBSOLETI :
  • 201507Z 00000KT 10SM FEW005 27/26 A3006 RMK AO2 T02720256
  • 201453Z 00000KT 10SM BKN004 26/25 A3006 RMK AO2 SLP179 T02610250 51009
  • 201422Z 00000KT 5SM BR OVC002 26/25 A3006 RMK AO2 T02560250
  • 201408Z 00000KT 2SM BR OVC002 25/24 A3006 RMK AO2 T02500244
  • 201355Z VRB03KT 3SM BR OVC002 25/25 A3006 RMK AO2 T02500250
  • 201253Z 08004KT 1/4SM FG VV002 24/24 A3005 RMK AO2 SLP176 T02440239

TAF KLFT
Valido dal 20 a 15 ore il 21 a 12 ore UTC


201524Z 2015/2112 VRB03KT P6SM FEW005 SCT025
FM201800 VRB05KT P6SM VCTS SCT025CB
TEMPO 2018/2022 3SM TSRA BKN025CB
FM210100 18003KT P6SM SCT250
Nessun NOTAM noto per questo aeroporto.



MetMap, La meteo Aeronautica in un colpo d'occhio ! - Copyright ORBIFLY Dicembre 2007 - Disclaimer

ORBIFLY MET'MAP TEAM :

Programmazione e sviluppo : Alexandra Zaïnal
Concezione e sviluppo : Baudouin d'Aumeries
Co-Programmazione e sviluppo : Marc-Olivier Méhu
Supporto tecnico e logistico : Manuel Goepfert
Aiuto per la traduzione : Arnaldo La Scala

Contatto : metmap@orbifly.com




FONTI E CREDITI :

   NOAA       Earth
Advisory